Time;durP1;ratioP1;P1;durP2;ratioP2;P2;SDS_P1;SDS_P2;PMS_P1;PMS_P2;Temp;Humidity;BMP_temperature;BMP_pressure;BME280_temperature;BME280_humidity;BME280_pressure;Samples;Min_cycle;Max_cycle;Signal;HPM_P1;HPM_P2
2023/01/21 00:01:18;;;;;;;17.23;9.63;;;;;;;5.26;100.00;96503.81;5023693;28;20099;-47
2023/01/21 00:03:47;;;;;;;22.60;11.27;;;;;;;5.15;100.00;96517.66;5029272;28;20095;-48
2023/01/21 00:06:17;;;;;;;15.52;8.55;;;;;;;5.35;100.00;96510.16;5029530;28;20096;-46
2023/01/21 00:08:45;;;;;;;19.63;10.07;;;;;;;5.30;100.00;96517.47;5023580;28;20085;-49
2023/01/21 00:11:15;;;;;;;18.55;10.52;;;;;;;5.36;100.00;96517.06;5029194;28;20072;-48
2023/01/21 00:13:44;;;;;;;19.90;10.85;;;;;;;5.58;100.00;96514.56;5026703;28;20072;-49
2023/01/21 00:16:12;;;;;;;15.90;9.27;;;;;;;5.26;100.00;96516.88;5028216;28;20073;-47
2023/01/21 00:18:41;;;;;;;26.00;12.80;;;;;;;5.40;100.00;96510.66;5020096;28;20541;-51
2023/01/21 00:21:09;;;;;;;23.75;12.63;;;;;;;5.52;100.00;96503.69;5022686;28;20085;-48
2023/01/21 00:23:40;;;;;;;16.65;9.45;;;;;;;5.30;100.00;96501.78;5019053;28;20396;-48
2023/01/21 00:26:10;;;;;;;31.90;17.90;;;;;;;5.65;100.00;96504.47;5026829;28;20073;-51
2023/01/21 00:28:40;;;;;;;;;;;;;;;5.28;100.00;96504.53;5024511;28;20076;-50
2023/01/21 00:31:10;;;;;;;21.98;10.95;;;;;;;5.83;100.00;96505.72;5019674;28;19952;-48
2023/01/21 00:33:38;;;;;;;15.80;9.15;;;;;;;5.53;100.00;96507.97;5027631;28;20073;-47
2023/01/21 00:36:08;;;;;;;21.48;10.50;;;;;;;5.38;100.00;96504.72;5023585;28;20661;-51
2023/01/21 00:38:37;;;;;;;19.23;9.82;;;;;;;5.48;100.00;96508.31;5028589;28;20081;-51
2023/01/21 00:41:09;;;;;;;29.58;15.50;;;;;;;5.57;100.00;96506.81;5016801;28;20090;-46
2023/01/21 00:43:38;;;;;;;19.40;11.48;;;;;;;5.04;100.00;96514.13;5022704;28;20142;-49
2023/01/21 00:46:06;;;;;;;17.40;8.82;;;;;;;5.25;100.00;96515.22;5025584;28;20092;-51
2023/01/21 00:48:34;;;;;;;16.27;10.02;;;;;;;5.34;100.00;96511.94;5028989;28;20073;-47
2023/01/21 00:51:03;;;;;;;19.27;10.68;;;;;;;5.56;100.00;96513.81;5018749;28;20087;-50
2023/01/21 00:53:33;;;;;;;25.65;12.18;;;;;;;5.41;100.00;96514.94;5028427;28;20087;-51
2023/01/21 00:56:02;;;;;;;25.13;12.50;;;;;;;5.39;100.00;96519.44;5024828;28;20080;-49
2023/01/21 00:58:32;;;;;;;27.10;13.10;;;;;;;5.54;100.00;96514.88;5022028;28;20525;-48
2023/01/21 01:01:02;;;;;;;25.00;13.95;;;;;;;5.74;100.00;96521.25;5026968;28;20095;-49
2023/01/21 01:03:31;;;;;;;19.10;10.85;;;;;;;5.90;100.00;96521.81;5019380;28;20080;-51
2023/01/21 01:06:03;;;;;;;30.20;15.30;;;;;;;5.93;100.00;96522.44;5017686;28;20097;-49
2023/01/21 01:08:31;;;;;;;28.20;14.05;;;;;;;6.08;100.00;96525.69;5026154;28;20092;-55
2023/01/21 01:11:00;;;;;;;20.63;12.57;;;;;;;5.90;100.00;96525.25;5020695;28;20077;-54
2023/01/21 01:13:28;;;;;;;26.08;14.13;;;;;;;5.90;100.00;96532.28;5026097;28;20567;-49
2023/01/21 01:15:59;;;;;;;27.38;15.13;;;;;;;5.90;100.00;96525.25;5025702;28;20092;-52
2023/01/21 01:18:28;;;;;;;28.38;15.07;;;;;;;6.27;100.00;96524.31;5027877;28;20076;-53
2023/01/21 01:20:56;;;;;;;29.27;15.40;;;;;;;6.26;100.00;96526.06;5024878;28;20096;-50
2023/01/21 01:23:25;;;;;;;31.08;16.67;;;;;;;6.24;100.00;96530.59;5026524;28;20521;-51
2023/01/21 01:25:57;;;;;;;28.38;15.13;;;;;;;6.29;100.00;96530.25;5025214;28;20081;-54
2023/01/21 01:28:26;;;;;;;29.60;16.45;;;;;;;6.25;100.00;96531.44;5027207;28;20085;-50
2023/01/21 01:30:54;;;;;;;28.70;14.07;;;;;;;6.14;100.00;96532.25;5019011;28;20081;-49
2023/01/21 01:33:24;;;;;;;29.15;15.50;;;;;;;6.22;100.00;96532.50;5026287;28;20465;-51
2023/01/21 01:35:52;;;;;;;31.17;14.77;;;;;;;6.25;100.00;96534.88;5024103;28;20081;-51
2023/01/21 01:38:22;;;;;;;30.52;16.55;;;;;;;6.35;100.00;96535.84;5027828;28;20502;-52
2023/01/21 01:40:52;;;;;;;28.95;17.40;;;;;;;6.44;100.00;96536.97;5028846;28;20080;-45
2023/01/21 01:43:23;;;;;;;25.83;14.43;;;;;;;6.25;100.00;96541.91;5023232;28;20088;-46
2023/01/21 01:45:52;;;;;;;27.52;13.88;;;;;;;6.30;100.00;96537.19;5026803;28;20092;-50
2023/01/21 01:48:24;;;;;;;29.50;15.48;;;;;;;6.23;100.00;96542.03;5023019;28;20530;-51
2023/01/21 01:50:53;;;;;;;20.85;11.10;;;;;;;6.12;100.00;96536.75;5016546;28;20530;-49
2023/01/21 01:53:21;;;;;;;26.38;13.65;;;;;;;5.86;100.00;96538.69;5026241;28;20537;-52
2023/01/21 01:55:49;;;;;;;13.63;8.65;;;;;;;5.74;100.00;96536.97;5027965;28;20084;-45
2023/01/21 01:58:19;;;;;;;15.88;9.57;;;;;;;5.65;100.00;96539.31;5022780;28;20085;-47
2023/01/21 02:00:48;;;;;;;23.33;11.70;;;;;;;5.75;100.00;96539.47;5027566;28;20482;-51
2023/01/21 02:06:04;;;;;;;15.07;9.07;;;;;;;5.36;100.00;96541.41;5022718;28;20061;-46
2023/01/21 02:08:35;;;;;;;15.93;9.32;;;;;;;5.20;100.00;96546.09;5018281;28;20482;-47
2023/01/21 02:11:06;;;;;;;;;;;;;;;5.40;100.00;96548.13;5028467;28;20077;-48
2023/01/21 02:13:34;;;;;;;23.63;12.40;;;;;;;5.53;100.00;96545.44;5023501;28;19982;-47
2023/01/21 02:16:18;;;;;;;15.13;9.63;;;;;;;5.47;100.00;96543.25;5034260;28;20654;-47
2023/01/21 02:18:50;;;;;;;21.42;11.82;;;;;;;5.58;100.00;96539.88;5027232;28;20081;-47
2023/01/21 02:21:46;;;;;;;29.73;16.30;;;;;;;5.64;100.00;96542.88;5018171;28;20074;-48
2023/01/21 02:24:45;;;;;;;24.95;13.32;;;;;;;5.38;100.00;96543.94;5041152;28;20077;-51
2023/01/21 02:27:32;;;;;;;21.05;11.45;;;;;;;5.52;100.00;96543.75;5022530;28;20088;-49
2023/01/21 02:30:43;;;;;;;29.73;15.30;;;;;;;5.74;100.00;96547.44;5028575;28;20084;-47
2023/01/21 02:33:30;;;;;;;23.35;12.13;;;;;;;5.62;100.00;96549.16;5027430;28;20080;-48
2023/01/21 02:36:07;;;;;;;28.00;15.73;;;;;;;5.64;100.00;96548.13;5025848;28;20070;-46
2023/01/21 02:38:40;;;;;;;22.35;13.32;;;;;;;5.31;100.00;96547.94;5024880;28;20081;-49
2023/01/21 02:41:16;;;;;;;10.07;6.35;;;;;;;5.37;100.00;96550.94;5027235;28;20076;-49
2023/01/21 02:43:50;;;;;;;22.33;12.38;;;;;;;5.22;100.00;96550.25;5029161;28;20068;-49
2023/01/21 02:46:22;;;;;;;15.45;8.00;;;;;;;5.17;100.00;96554.16;5027338;28;20076;-49
2023/01/21 02:48:56;;;;;;;16.65;9.05;;;;;;;5.11;100.00;96555.41;5031063;28;20088;-47
2023/01/21 02:51:24;;;;;;;20.02;9.48;;;;;;;5.32;100.00;96549.59;5022307;28;20088;-51
2023/01/21 02:53:53;;;;;;;19.73;10.82;;;;;;;5.38;100.00;96549.16;5027756;28;20074;-47
2023/01/21 02:56:24;;;;;;;11.70;7.50;;;;;;;5.30;100.00;96548.88;5029699;28;20100;-47
2023/01/21 02:58:56;;;;;;;24.10;14.73;;;;;;;5.52;100.00;96542.94;5025242;28;20477;-52
2023/01/21 03:01:30;;;;;;;32.20;16.75;;;;;;;5.75;100.00;96554.31;5025509;28;20077;-48
2023/01/21 03:04:23;;;;;;;20.15;11.90;;;;;;;5.82;100.00;96543.31;5024570;28;20085;-47
2023/01/21 03:06:58;;;;;;;25.63;14.45;;;;;;;5.83;100.00;96546.75;5023335;28;20084;-47
2023/01/21 03:09:29;;;;;;;20.33;12.23;;;;;;;5.48;100.00;96553.63;5029101;28;20065;-49
2023/01/21 03:12:04;;;;;;;24.65;13.43;;;;;;;5.61;100.00;96550.09;5022946;28;20069;-47
2023/01/21 03:17:27;;;;;;;;;;;;;;;5.72;100.00;96551.00;5017729;28;20078;-50
2023/01/21 03:20:03;;;;;;;16.73;9.70;;;;;;;5.52;100.00;96556.84;5028393;28;20404;-48
2023/01/21 03:22:34;;;;;;;27.67;13.75;;;;;;;5.72;100.00;96551.00;5022937;28;20105;-52
2023/01/21 03:25:03;;;;;;;23.08;13.02;;;;;;;5.67;100.00;96545.25;5020706;28;20092;-52
2023/01/21 03:27:33;;;;;;;24.50;11.65;;;;;;;5.71;100.00;96549.34;5023579;28;20073;-51
2023/01/21 03:30:04;;;;;;;22.17;12.45;;;;;;;5.60;100.00;96549.25;5030575;28;20076;-52
2023/01/21 03:32:34;;;;;;;17.25;10.43;;;;;;;5.59;100.00;96539.75;5028216;28;20076;-50
2023/01/21 03:35:06;;;;;;;23.65;13.40;;;;;;;5.35;100.00;96550.22;5025210;28;20068;-49
2023/01/21 03:37:39;;;;;;;14.38;7.85;;;;;;;5.19;100.00;96549.63;5024203;28;20073;-48
2023/01/21 03:40:13;;;;;;;24.33;12.95;;;;;;;5.38;100.00;96542.16;5025847;28;20076;-52
2023/01/21 03:42:43;;;;;;;20.83;11.95;;;;;;;5.25;100.00;96543.97;5024654;28;20469;-52
2023/01/21 03:45:12;;;;;;;27.88;14.18;;;;;;;5.25;100.00;96543.97;5023423;28;20082;-51
2023/01/21 03:47:42;;;;;;;22.02;12.40;;;;;;;5.28;100.00;96538.53;5026140;28;20613;-46
2023/01/21 03:50:14;;;;;;;22.77;12.25;;;;;;;5.21;100.00;96535.50;5023076;28;20552;-49
2023/01/21 03:52:44;;;;;;;34.25;16.60;;;;;;;5.42;100.00;96534.91;5045425;28;20076;-51
2023/01/21 03:55:14;;;;;;;28.17;16.30;;;;;;;5.61;100.00;96537.88;5024554;28;20625;-53
2023/01/21 03:57:42;;;;;;;30.00;16.60;;;;;;;5.71;100.00;96538.88;5029133;28;20089;-47
2023/01/21 04:00:12;;;;;;;22.45;11.13;;;;;;;5.43;100.00;96542.63;5023230;28;20360;-49
2023/01/21 04:02:40;;;;;;;24.17;12.63;;;;;;;5.42;100.00;96537.53;5029960;28;20073;-46
2023/01/21 04:05:09;;;;;;;26.67;14.60;;;;;;;5.71;100.00;96531.03;5027804;28;20065;-49
2023/01/21 04:07:38;;;;;;;22.00;10.43;;;;;;;5.44;100.00;96530.41;5022939;28;20069;-50
2023/01/21 04:10:08;;;;;;;25.65;14.00;;;;;;;5.56;100.00;96521.66;5030062;28;20064;-48
2023/01/21 04:12:37;;;;;;;14.35;8.13;;;;;;;5.46;100.00;96529.34;5024288;28;20076;-48
2023/01/21 04:15:07;;;;;;;31.25;14.75;;;;;;;5.62;100.00;96523.00;5029730;28;20608;-50
2023/01/21 04:17:35;;;;;;;25.23;13.03;;;;;;;5.52;100.00;96532.47;5020902;28;20556;-47
2023/01/21 04:20:05;;;;;;;28.23;14.38;;;;;;;5.55;100.00;96530.47;5023454;28;20077;-50
2023/01/21 04:22:33;;;;;;;15.50;9.80;;;;;;;5.28;100.00;96540.31;5029163;28;20088;-50
2023/01/21 04:25:04;;;;;;;22.08;12.10;;;;;;;5.13;100.00;96537.84;5025854;28;20092;-49
2023/01/21 04:27:32;;;;;;;20.00;9.35;;;;;;;4.94;100.00;96545.31;5028752;28;20108;-53
2023/01/21 04:30:00;;;;;;;29.42;15.45;;;;;;;5.20;100.00;96536.47;5015502;28;20111;-47
2023/01/21 04:32:29;;;;;;;27.05;14.50;;;;;;;5.28;100.00;96535.09;5027388;28;20084;-51
2023/01/21 04:34:57;;;;;;;35.45;17.02;;;;;;;4.52;100.00;96545.56;5029078;28;20079;-48
2023/01/21 04:37:25;;;;;;;32.30;17.30;;;;;;;4.59;100.00;96547.78;5025513;28;20072;-46
2023/01/21 04:39:53;;;;;;;32.72;16.02;;;;;;;5.30;100.00;96544.50;5027766;28;20076;-48
2023/01/21 04:42:23;;;;;;;27.65;14.00;;;;;;;5.36;100.00;96546.63;5024582;28;20078;-47
2023/01/21 04:44:52;;;;;;;31.17;17.08;;;;;;;5.41;100.00;96547.16;5028100;28;20073;-47
2023/01/21 04:47:20;;;;;;;28.63;15.45;;;;;;;5.35;100.00;96547.59;5019502;28;20069;-49
2023/01/21 04:49:48;;;;;;;29.10;13.50;;;;;;;5.21;100.00;96547.75;5028707;28;20069;-51
2023/01/21 04:52:17;;;;;;;24.05;13.80;;;;;;;5.03;100.00;96554.28;5022856;28;20086;-49
2023/01/21 04:54:45;;;;;;;28.83;14.45;;;;;;;4.83;100.00;96553.91;5025605;28;20485;-50
2023/01/21 04:57:13;;;;;;;30.70;16.40;;;;;;;5.08;100.00;96555.63;5028431;28;20087;-48
2023/01/21 04:59:43;;;;;;;28.58;13.73;;;;;;;4.86;100.00;96553.69;5026842;28;20104;-50
2023/01/21 05:02:11;;;;;;;24.17;12.37;;;;;;;4.89;100.00;96555.25;5023413;28;20069;-52
2023/01/21 05:04:40;;;;;;;30.67;15.95;;;;;;;4.65;100.00;96552.56;5026167;28;20500;-52
2023/01/21 05:07:10;;;;;;;25.15;14.85;;;;;;;4.41;100.00;96550.69;5012826;28;20085;-48
2023/01/21 05:09:38;;;;;;;28.05;15.82;;;;;;;4.01;100.00;96549.94;5018073;28;20065;-49
2023/01/21 05:12:07;;;;;;;31.52;15.38;;;;;;;4.41;100.00;96545.47;5022380;28;20069;-46
2023/01/21 05:14:36;;;;;;;23.95;12.00;;;;;;;4.46;100.00;96553.00;5022277;28;20061;-51
2023/01/21 05:17:05;;;;;;;24.42;12.27;;;;;;;4.27;100.00;96548.19;5022479;28;20056;-50
2023/01/21 05:19:34;;;;;;;17.23;9.70;;;;;;;4.07;100.00;96559.13;5027142;28;20077;-53
2023/01/21 05:22:02;;;;;;;18.75;10.07;;;;;;;3.92;100.00;96559.22;5037950;28;20080;-48
2023/01/21 05:24:30;;;;;;;21.55;10.50;;;;;;;4.10;100.00;96562.38;5027751;28;20100;-53
2023/01/21 05:26:59;;;;;;;19.60;11.88;;;;;;;3.74;100.00;96565.63;5026870;28;20088;-48
2023/01/21 05:29:27;;;;;;;19.98;10.80;;;;;;;3.82;100.00;96565.97;5024438;28;20172;-48
2023/01/21 05:31:55;;;;;;;20.33;10.90;;;;;;;3.54;100.00;96567.78;5023201;28;20077;-48
2023/01/21 05:34:25;;;;;;;24.70;12.77;;;;;;;4.09;100.00;96570.28;5018573;28;20100;-52
2023/01/21 05:36:54;;;;;;;12.05;8.40;;;;;;;3.79;100.00;96571.38;5019694;28;20077;-50
2023/01/21 05:39:22;;;;;;;15.07;8.63;;;;;;;3.79;100.00;96569.63;5023321;28;20080;-54
2023/01/21 05:41:50;;;;;;;18.05;9.48;;;;;;;3.89;100.00;96572.47;5023192;28;20115;-47
2023/01/21 05:44:19;;;;;;;12.38;7.95;;;;;;;3.80;100.00;96571.28;5013311;28;20076;-49
2023/01/21 05:46:47;;;;;;;17.42;9.88;;;;;;;3.76;100.00;96574.19;5021884;28;20068;-48
2023/01/21 05:49:15;;;;;;;12.57;8.10;;;;;;;3.57;100.00;96582.34;5019186;28;20069;-51
2023/01/21 05:51:45;;;;;;;16.02;9.10;;;;;;;3.37;100.00;96575.81;5025038;28;20548;-49
2023/01/21 05:54:13;;;;;;;18.00;11.02;;;;;;;3.48;100.00;96572.53;5021845;28;20463;-52
2023/01/21 05:56:42;;;;;;;26.08;11.73;;;;;;;3.28;100.00;96574.63;5020437;28;20073;-48
2023/01/21 05:59:10;;;;;;;16.67;9.43;;;;;;;3.19;100.00;96576.97;5028596;28;20085;-50
2023/01/21 06:01:38;;;;;;;18.70;11.82;;;;;;;3.22;100.00;96579.41;5026187;28;20073;-51
2023/01/21 06:04:07;;;;;;;22.75;11.05;;;;;;;2.91;100.00;96583.91;5028338;28;20470;-48
2023/01/21 06:06:35;;;;;;;15.90;9.02;;;;;;;3.09;100.00;96580.16;5022353;28;20070;-48
2023/01/21 06:09:05;;;;;;;18.80;10.60;;;;;;;3.03;100.00;96575.34;5026349;28;20533;-46
2023/01/21 06:11:33;;;;;;;18.20;9.07;;;;;;;3.37;100.00;96577.56;5025846;28;20080;-46
2023/01/21 06:14:01;;;;;;;17.67;11.00;;;;;;;3.07;100.00;96576.00;5026834;28;20661;-51
2023/01/21 06:16:30;;;;;;;17.92;9.68;;;;;;;3.15;100.00;96576.34;5022913;28;20085;-49
2023/01/21 06:18:59;;;;;;;17.58;8.48;;;;;;;3.24;100.00;96575.75;5025821;28;20496;-46
2023/01/21 06:21:27;;;;;;;26.73;14.35;;;;;;;3.46;100.00;96584.81;5023372;28;20082;-48
2023/01/21 06:23:56;;;;;;;9.85;5.80;;;;;;;3.03;100.00;96585.75;5027085;28;20107;-52
2023/01/21 06:26:25;;;;;;;26.13;13.30;;;;;;;2.94;100.00;96585.50;5024750;28;20087;-46
2023/01/21 06:28:55;;;;;;;14.60;7.85;;;;;;;3.13;100.00;96579.97;5026397;28;20084;-51
2023/01/21 06:31:24;;;;;;;10.00;6.72;;;;;;;2.91;100.00;96590.88;5028413;28;20097;-53
2023/01/21 06:33:52;;;;;;;15.32;9.85;;;;;;;2.81;100.00;96586.22;5030788;28;20088;-49
2023/01/21 06:36:20;;;;;;;21.98;9.50;;;;;;;2.86;100.00;96585.97;5026904;28;20124;-49
2023/01/21 06:38:49;;;;;;;27.17;14.73;;;;;;;2.63;100.00;96587.34;5022836;28;20077;-53
2023/01/21 06:41:17;;;;;;;30.45;14.43;;;;;;;3.11;100.00;96581.84;5030029;28;20092;-48
2023/01/21 06:43:46;;;;;;;14.13;7.45;;;;;;;2.95;100.00;96594.97;5025364;28;20088;-48
2023/01/21 06:46:15;;;;;;;29.15;12.00;;;;;;;2.70;100.00;96595.63;5022473;28;20085;-47
2023/01/21 06:48:43;;;;;;;30.05;14.30;;;;;;;2.74;100.00;96591.91;5022959;28;20080;-51
2023/01/21 06:51:11;;;;;;;25.23;13.77;;;;;;;3.08;100.00;96590.69;5020431;28;20643;-48
2023/01/21 06:53:40;;;;;;;14.65;8.32;;;;;;;3.18;100.00;96588.34;5021341;28;20474;-52
2023/01/21 06:56:08;;;;;;;27.25;14.55;;;;;;;2.50;100.00;96595.06;5021435;28;20112;-47
2023/01/21 06:58:36;;;;;;;24.83;12.77;;;;;;;2.43;100.00;96595.53;5022634;28;20470;-47
2023/01/21 07:01:06;;;;;;;23.45;11.95;;;;;;;2.37;100.00;96591.50;5015321;28;20081;-50
2023/01/21 07:03:34;;;;;;;26.83;13.60;;;;;;;2.00;100.00;96604.09;5013227;28;20509;-50
2023/01/21 07:06:03;;;;;;;31.67;15.45;;;;;;;2.27;100.00;96599.03;5029582;28;20081;-46
2023/01/21 07:08:31;;;;;;;25.40;13.35;;;;;;;2.65;100.00;96602.88;5026499;28;20089;-48
2023/01/21 07:10:59;;;;;;;27.35;14.32;;;;;;;3.12;100.00;96599.97;5016531;28;20077;-45
2023/01/21 07:13:28;;;;;;;27.00;13.07;;;;;;;3.20;100.00;96600.34;5028316;28;20095;-51
2023/01/21 07:15:59;;;;;;;28.92;14.35;;;;;;;3.21;100.00;96593.38;5029862;28;20092;-54
2023/01/21 07:18:29;;;;;;;30.55;13.82;;;;;;;3.50;100.00;96605.38;5025083;28;20530;-54
2023/01/21 07:20:57;;;;;;;25.47;11.93;;;;;;;3.45;100.00;96604.00;5029442;28;20529;-50
2023/01/21 07:23:26;;;;;;;25.17;13.30;;;;;;;3.93;100.00;96596.56;5029159;28;20510;-46
2023/01/21 07:25:54;;;;;;;26.75;13.50;;;;;;;3.60;100.00;96610.00;5027176;28;20111;-49
2023/01/21 07:28:22;;;;;;;28.30;13.38;;;;;;;3.78;100.00;96614.03;5026304;28;20099;-53
2023/01/21 07:30:51;;;;;;;28.08;13.63;;;;;;;3.51;100.00;96616.63;5022884;28;20087;-50
2023/01/21 07:33:19;;;;;;;27.13;14.27;;;;;;;4.36;100.00;96612.00;5020546;28;20092;-46
2023/01/21 07:35:49;;;;;;;25.15;13.32;;;;;;;4.34;100.00;96614.72;5022179;28;20088;-52
2023/01/21 07:38:17;;;;;;;26.00;13.50;;;;;;;4.21;100.00;96621.69;5028953;28;20494;-49
2023/01/21 07:40:47;;;;;;;26.10;14.63;;;;;;;4.35;100.00;96619.00;5027189;28;20080;-52
2023/01/21 07:43:16;;;;;;;28.88;13.98;;;;;;;4.14;100.00;96621.25;5028761;28;20081;-48
2023/01/21 07:45:44;;;;;;;21.23;11.05;;;;;;;4.17;100.00;96633.28;5027770;28;20077;-49
2023/01/21 07:48:13;;;;;;;21.92;10.90;;;;;;;4.01;100.00;96625.59;4985624;28;1144574;-52
2023/01/21 07:50:41;;;;;;;25.80;12.93;;;;;;;4.04;100.00;96628.84;5022316;28;20084;-52
2023/01/21 07:53:12;;;;;;;19.40;11.23;;;;;;;3.85;100.00;96628.34;5017816;28;20513;-51
2023/01/21 07:55:40;;;;;;;;;;;;;;;3.97;100.00;96622.34;5017033;28;20060;-49
2023/01/21 07:58:09;;;;;;;15.70;8.38;;;;;;;3.67;100.00;96625.16;5023552;28;19960;-48
2023/01/21 08:00:37;;;;;;;19.27;9.50;;;;;;;4.03;100.00;96624.56;5026657;28;20080;-49
2023/01/21 08:03:06;;;;;;;21.30;11.95;;;;;;;4.20;100.00;96613.03;5029976;28;20075;-52
2023/01/21 08:05:34;;;;;;;26.30;14.65;;;;;;;4.29;100.00;96619.38;5029389;28;20081;-46
2023/01/21 08:08:03;;;;;;;28.48;14.25;;;;;;;4.97;100.00;96619.09;5022805;28;20074;-48
2023/01/21 08:10:32;;;;;;;23.17;13.13;;;;;;;4.39;100.00;96623.06;5028774;28;20072;-52
2023/01/21 08:13:02;;;;;;;28.00;14.20;;;;;;;4.89;100.00;96613.59;5024367;28;20088;-54
2023/01/21 08:15:30;;;;;;;18.35;8.13;;;;;;;4.75;100.00;96622.38;5015521;28;20097;-49
2023/01/21 08:17:59;;;;;;;19.05;9.13;;;;;;;5.11;100.00;96625.16;5024162;28;20069;-46
2023/01/21 08:20:27;;;;;;;14.77;8.60;;;;;;;4.84;100.00;96622.66;5028973;28;20076;-51
2023/01/21 08:22:59;;;;;;;22.80;10.07;;;;;;;5.00;100.00;96624.13;5022180;28;20832;-49
2023/01/21 08:25:28;;;;;;;18.98;8.88;;;;;;;4.55;100.00;96624.66;5026414;28;20553;-49
2023/01/21 08:27:58;;;;;;;17.02;9.98;;;;;;;4.29;100.00;96624.63;5015687;28;20077;-50
2023/01/21 08:30:26;;;;;;;14.88;7.75;;;;;;;4.57;100.00;96626.22;5027877;28;20071;-47
2023/01/21 08:32:55;;;;;;;21.13;9.90;;;;;;;4.55;100.00;96627.28;5029404;28;20165;-51
2023/01/21 08:35:23;;;;;;;15.40;8.70;;;;;;;4.79;100.00;96627.38;5022873;28;20107;-53
2023/01/21 08:37:54;;;;;;;17.67;9.48;;;;;;;4.82;100.00;96630.63;5021173;28;20081;-54
2023/01/21 08:40:24;;;;;;;13.35;7.30;;;;;;;4.60;100.00;96627.78;5028584;28;20084;-47
2023/01/21 08:42:52;;;;;;;12.93;7.25;;;;;;;4.90;100.00;96627.47;5022898;28;20081;-48
2023/01/21 08:45:22;;;;;;;20.10;10.45;;;;;;;4.59;100.00;96629.56;5020086;28;20588;-47
2023/01/21 08:47:50;;;;;;;21.35;10.82;;;;;;;4.70;100.00;96636.66;5016164;28;20489;-47
2023/01/21 08:50:19;;;;;;;27.92;12.77;;;;;;;4.42;100.00;96630.69;5024583;28;20077;-52
2023/01/21 08:52:51;;;;;;;20.02;10.88;;;;;;;4.87;100.00;96625.06;5016004;28;20092;-50
2023/01/21 08:55:20;;;;;;;19.98;10.52;;;;;;;4.78;100.00;96630.91;5026148;28;20085;-46
2023/01/21 08:57:50;;;;;;;24.05;11.55;;;;;;;4.70;100.00;96629.66;5025121;28;20081;-50
2023/01/21 09:00:20;;;;;;;31.48;15.48;;;;;;;4.43;100.00;96634.13;5023023;28;20073;-46
2023/01/21 09:02:50;;;;;;;33.45;13.98;;;;;;;4.83;100.00;96634.06;5024765;28;20089;-53
2023/01/21 09:05:19;;;;;;;19.63;11.23;;;;;;;4.93;100.00;96633.31;5025840;28;20077;-51
2023/01/21 09:07:47;;;;;;;21.10;11.65;;;;;;;5.35;100.00;96636.50;5026632;28;20089;-49
2023/01/21 09:10:59;;;;;;;26.75;11.10;;;;;;;5.34;100.00;96636.63;5026239;28;20085;-48
2023/01/21 09:13:05;;;;;;;33.10;15.98;;;;;;;5.77;100.00;96634.38;5019635;28;20069;-49
2023/01/21 09:15:37;;;;;;;29.70;14.38;;;;;;;5.48;100.00;96646.94;5027091;28;20096;-49
2023/01/21 09:18:07;;;;;;;11.23;7.32;;;;;;;5.95;100.00;96637.47;5025708;28;20189;-48
2023/01/21 09:20:36;;;;;;;31.25;15.13;;;;;;;6.10;100.00;96631.13;5025835;28;20130;-46
2023/01/21 09:23:22;;;;;;;21.00;10.00;;;;;;;5.85;100.00;96631.19;5021386;28;20069;-45
2023/01/21 09:25:52;;;;;;;27.50;12.07;;;;;;;5.81;100.00;96633.22;5037601;28;20077;-52
2023/01/21 09:28:21;;;;;;;22.13;8.88;;;;;;;5.96;100.00;96627.88;5021203;28;20096;-49
2023/01/21 09:30:49;;;;;;;25.45;11.75;;;;;;;6.16;100.00;96620.22;5025508;28;20479;-49
2023/01/21 09:33:19;;;;;;;28.00;13.45;;;;;;;5.58;100.00;96629.66;5026679;28;20483;-49
2023/01/21 09:35:53;;;;;;;23.02;11.27;;;;;;;5.65;100.00;96632.66;5027239;28;20072;-49
2023/01/21 09:38:21;;;;;;;24.15;12.02;;;;;;;5.74;100.00;96636.38;5028032;28;20081;-51
2023/01/21 09:40:49;;;;;;;21.80;11.10;;;;;;;5.89;100.00;96628.28;5027899;28;20080;-50
2023/01/21 09:43:21;;;;;;;22.85;9.57;;;;;;;6.07;100.00;96627.91;5025262;28;20557;-46
2023/01/21 09:45:50;;;;;;;17.25;10.43;;;;;;;5.76;100.00;96632.72;5024121;28;20077;-48
2023/01/21 09:48:27;;;;;;;20.85;10.60;;;;;;;5.65;100.00;96640.50;5026757;28;20081;-48
2023/01/21 09:50:56;;;;;;;21.75;11.25;;;;;;;5.96;100.00;96628.69;5018112;28;20070;-49
2023/01/21 09:53:28;;;;;;;11.82;6.32;;;;;;;5.81;100.00;96633.22;5023667;28;20072;-52
2023/01/21 09:55:58;;;;;;;26.48;13.02;;;;;;;6.14;100.00;96629.94;5023131;28;20142;-48
2023/01/21 09:58:30;;;;;;;22.00;10.75;;;;;;;6.19;100.00;96632.22;5013630;28;20089;-52
2023/01/21 10:01:01;;;;;;;19.42;9.98;;;;;;;5.64;100.00;96637.06;5027960;28;20076;-47
2023/01/21 10:03:37;;;;;;;19.08;9.63;;;;;;;6.06;100.00;96634.94;5021625;28;20078;-52
2023/01/21 10:06:12;;;;;;;21.88;9.23;;;;;;;6.27;100.00;96637.75;5026364;28;20077;-46
2023/01/21 10:08:58;;;;;;;21.25;10.70;;;;;;;5.96;100.00;96633.94;5022523;28;20084;-50
2023/01/21 10:11:38;;;;;;;18.55;9.35;;;;;;;6.55;100.00;96635.69;5025243;28;20081;-54
2023/01/21 10:14:17;;;;;;;18.45;10.20;;;;;;;6.68;100.00;96631.19;5021611;28;20061;-51
2023/01/21 10:16:50;;;;;;;21.48;10.55;;;;;;;6.59;99.74;96634.50;5023527;28;20620;-50
2023/01/21 10:19:23;;;;;;;17.20;8.88;;;;;;;6.66;94.99;96638.31;5025527;28;20072;-50
2023/01/21 10:21:54;;;;;;;8.55;5.88;;;;;;;6.56;99.25;96638.19;5020524;28;20069;-50
2023/01/21 10:24:24;;;;;;;22.77;12.65;;;;;;;7.47;90.80;96625.97;5022362;28;20100;-52
2023/01/21 10:26:54;;;;;;;19.25;10.82;;;;;;;7.06;95.73;96637.91;5021409;28;20084;-46
2023/01/21 10:29:24;;;;;;;17.10;9.27;;;;;;;7.06;91.17;96635.28;5023834;28;20104;-47
2023/01/21 10:31:58;;;;;;;17.73;10.25;;;;;;;6.22;96.08;96644.25;5019634;28;20084;-50
2023/01/21 10:34:30;;;;;;;20.20;9.50;;;;;;;7.14;92.26;96635.53;5024077;28;20099;-48
2023/01/21 10:37:08;;;;;;;12.77;7.10;;;;;;;7.02;89.35;96632.06;5027425;28;20509;-49
2023/01/21 10:39:44;;;;;;;21.13;9.88;;;;;;;7.09;92.11;96632.44;5027393;28;20077;-49
2023/01/21 10:42:31;;;;;;;18.20;8.90;;;;;;;6.85;91.18;96635.16;5022394;28;20076;-51
2023/01/21 10:45:03;;;;;;;23.85;11.85;;;;;;;7.49;86.97;96631.91;5026078;28;20077;-47
2023/01/21 10:47:37;;;;;;;19.40;9.02;;;;;;;6.65;91.64;96634.03;5018246;28;20089;-53
2023/01/21 10:50:22;;;;;;;19.05;10.65;;;;;;;7.25;89.62;96632.88;5020421;28;20084;-52
2023/01/21 10:52:54;;;;;;;25.30;12.70;;;;;;;7.76;83.36;96626.28;5021296;28;20057;-48
2023/01/21 10:55:27;;;;;;;13.23;7.45;;;;;;;7.13;86.15;96628.63;5018138;28;20088;-48
2023/01/21 10:57:59;;;;;;;14.93;6.25;;;;;;;7.19;86.07;96625.53;5023198;28;20473;-52
2023/01/21 11:00:29;;;;;;;17.10;8.27;;;;;;;7.55;80.13;96618.31;5030935;28;20077;-50
2023/01/21 11:03:00;;;;;;;15.93;7.90;;;;;;;7.38;87.78;96627.53;5026370;28;20073;-50
2023/01/21 11:05:31;;;;;;;15.77;8.07;;;;;;;7.20;85.74;96631.59;5030439;28;20080;-51
2023/01/21 11:07:59;;;;;;;17.00;9.15;;;;;;;6.38;97.53;96635.16;5025826;28;20103;-51
2023/01/21 11:10:28;;;;;;;11.00;6.65;;;;;;;6.65;95.91;96628.81;5027454;28;20073;-47
2023/01/21 11:12:56;;;;;;;11.82;7.05;;;;;;;6.95;92.80;96619.53;5015947;28;20482;-54
2023/01/21 11:15:26;;;;;;;22.80;11.77;;;;;;;7.33;91.04;96620.03;5023534;28;20112;-52
2023/01/21 11:17:55;;;;;;;12.65;7.60;;;;;;;6.68;100.00;96622.50;5019559;28;20510;-51
2023/01/21 11:20:32;;;;;;;24.23;12.20;;;;;;;7.32;95.36;96612.25;5017163;28;20061;-49
2023/01/21 11:23:02;;;;;;;22.10;9.27;;;;;;;7.34;95.33;96616.44;5014811;28;20069;-48
2023/01/21 11:25:37;;;;;;;52.42;22.95;;;;;;;7.68;90.48;96608.53;5025919;28;20088;-49
2023/01/21 11:28:06;;;;;;;11.35;5.45;;;;;;;7.12;91.47;96608.56;5029730;28;20136;-52
2023/01/21 11:30:37;;;;;;;9.50;5.88;;;;;;;7.36;91.63;96606.66;5024213;28;20072;-50
2023/01/21 11:33:24;;;;;;;15.85;7.82;;;;;;;6.65;100.00;96611.28;5028781;28;20068;-49
2023/01/21 11:35:54;;;;;;;14.90;6.80;;;;;;;7.13;98.31;96602.41;5022866;28;20068;-55
2023/01/21 11:38:31;;;;;;;18.20;9.82;;;;;;;7.09;95.31;96606.22;5023816;28;20100;-53
2023/01/21 11:41:02;;;;;;;15.75;8.00;;;;;;;6.93;100.00;96608.34;5023444;28;20524;-45
2023/01/21 11:43:35;;;;;;;8.18;5.43;;;;;;;7.36;96.20;96601.44;5022280;28;20085;-45